createdAt,value
2023-08-11T00:00:00.201Z,14.75
2023-08-11T00:05:00.145Z,14.81
2023-08-11T00:10:00.148Z,14.94
2023-08-11T00:15:00.146Z,15
2023-08-11T00:20:00.109Z,15
2023-08-11T00:25:00.137Z,14.88
2023-08-11T00:30:00.162Z,14.75
2023-08-11T00:35:00.136Z,14.63
2023-08-11T00:40:00.106Z,14.44
2023-08-11T00:45:00.120Z,14.25
2023-08-11T00:50:00.094Z,14.13
2023-08-11T00:55:00.113Z,14
2023-08-11T01:00:00.153Z,13.94
2023-08-11T01:05:00.128Z,13.88
2023-08-11T01:10:00.157Z,13.88
2023-08-11T01:15:00.168Z,13.81
2023-08-11T01:20:00.129Z,13.75
2023-08-11T01:25:00.158Z,13.69
2023-08-11T01:30:00.179Z,13.69
2023-08-11T01:35:00.132Z,13.63
2023-08-11T01:40:00.192Z,13.56
2023-08-11T01:45:00.257Z,13.5
2023-08-11T01:50:00.188Z,13.5
2023-08-11T01:55:00.144Z,13.38
2023-08-11T02:00:00.189Z,13.38
2023-08-11T02:05:00.157Z,13.31
2023-08-11T02:10:00.128Z,13.25
2023-08-11T02:15:00.140Z,13.19
2023-08-11T02:20:00.144Z,13.13
2023-08-11T02:25:00.133Z,13.06
2023-08-11T02:30:00.160Z,13.13
2023-08-11T02:35:00.166Z,13.06
2023-08-11T02:40:00.139Z,13.06
2023-08-11T02:45:00.120Z,13.06
2023-08-11T02:50:00.130Z,12.94
2023-08-11T02:55:00.153Z,12.88
2023-08-11T03:00:00.195Z,12.81
2023-08-11T03:05:00.139Z,12.81
2023-08-11T03:10:00.136Z,12.75
2023-08-11T03:15:00.163Z,12.75
2023-08-11T03:20:00.160Z,12.69
2023-08-11T03:25:00.199Z,12.63
2023-08-11T03:30:00.156Z,12.56
2023-08-11T03:35:00.142Z,12.5
2023-08-11T03:40:00.122Z,12.5
2023-08-11T03:45:00.173Z,12.5
2023-08-11T03:50:00.187Z,12.5
2023-08-11T03:55:00.157Z,12.5
2023-08-11T04:00:00.163Z,12.5
2023-08-11T04:05:00.137Z,12.56
2023-08-11T04:10:00.131Z,12.63
2023-08-11T04:15:00.169Z,12.75
2023-08-11T04:20:00.184Z,12.94
2023-08-11T04:25:00.167Z,13.38
2023-08-11T04:30:00.161Z,15.06
2023-08-11T04:35:00.150Z,16.94
2023-08-11T04:40:00.195Z,18.38
2023-08-11T04:45:00.142Z,19.56
2023-08-11T04:50:00.135Z,19.94
2023-08-11T04:55:00.145Z,20.38
2023-08-11T05:00:00.182Z,20.63
2023-08-11T05:05:00.140Z,20.88
2023-08-11T05:10:00.172Z,21.06
2023-08-11T05:15:00.136Z,21.5
2023-08-11T05:20:00.265Z,22.5
2023-08-11T05:25:00.128Z,23
2023-08-11T05:30:00.173Z,23.63
2023-08-11T05:35:00.191Z,23.63
2023-08-11T05:40:00.137Z,23.5
2023-08-11T05:45:00.121Z,23.81
2023-08-11T05:50:00.123Z,24.25
2023-08-11T05:55:00.149Z,24.81
2023-08-11T06:00:00.295Z,25.56
2023-08-11T06:05:00.165Z,26.44
2023-08-11T06:10:02.370Z,26.69
2023-08-11T06:15:00.151Z,26.69
2023-08-11T06:20:00.199Z,27
2023-08-11T06:25:00.119Z,26.94
2023-08-11T06:30:00.199Z,26.81
2023-08-11T06:35:00.133Z,27.06
2023-08-11T06:40:00.144Z,27.38
2023-08-11T06:45:00.131Z,27.38
2023-08-11T06:50:00.121Z,27.38
2023-08-11T06:55:00.215Z,27.63
2023-08-11T07:00:00.188Z,28.06
2023-08-11T07:05:00.161Z,28.19
2023-08-11T07:10:03.490Z,28.94
2023-08-11T07:15:00.200Z,29.31
2023-08-11T07:20:00.199Z,28.88
2023-08-11T07:25:00.129Z,28.63
2023-08-11T07:30:00.149Z,29.13
2023-08-11T07:35:00.208Z,29.56
2023-08-11T07:40:00.167Z,29.88
2023-08-11T07:45:00.208Z,30.25
2023-08-11T07:50:00.162Z,29.81
2023-08-11T07:55:00.239Z,28.81
2023-08-11T08:00:00.211Z,28.06
2023-08-11T08:05:09.868Z,27.5
2023-08-11T08:10:00.147Z,27.38
2023-08-11T08:15:00.192Z,27.25
2023-08-11T08:20:00.151Z,26.56
2023-08-11T08:25:00.142Z,26.13
2023-08-11T08:30:00.182Z,25.88
2023-08-11T08:35:00.185Z,26
2023-08-11T08:40:00.198Z,26.44
2023-08-11T08:45:00.146Z,26.56
2023-08-11T08:50:00.202Z,26.5
2023-08-11T08:55:00.177Z,26.69
2023-08-11T09:00:00.214Z,27.06
2023-08-11T09:05:00.137Z,26.31
2023-08-11T09:10:00.122Z,25.94
2023-08-11T09:15:00.190Z,26.81
2023-08-11T09:20:00.144Z,26.94
2023-08-11T09:25:00.131Z,26.44
2023-08-11T09:30:00.185Z,26.56
2023-08-11T09:35:00.163Z,26.75
2023-08-11T09:40:00.197Z,26.31
2023-08-11T09:45:00.111Z,26.44
2023-08-11T09:50:00.262Z,26.13
2023-08-11T09:55:00.181Z,26.44
2023-08-11T10:00:00.186Z,26.44
2023-08-11T10:05:00.114Z,26.56
2023-08-11T10:10:00.120Z,26.63
2023-08-11T10:15:00.140Z,27.06
2023-08-11T10:20:00.174Z,27.19
2023-08-11T10:25:00.149Z,26.88
2023-08-11T10:30:00.168Z,26.69
2023-08-11T10:35:00.145Z,26.63
2023-08-11T10:40:01.091Z,26.69
2023-08-11T10:45:00.175Z,26.5
2023-08-11T10:50:00.120Z,26.5
2023-08-11T10:55:00.241Z,26.69
2023-08-11T11:00:00.244Z,26.38
2023-08-11T11:05:00.167Z,26.44
2023-08-11T11:10:00.165Z,26.38
2023-08-11T11:15:00.138Z,26.63
2023-08-11T11:20:02.794Z,26.38
2023-08-11T11:25:00.127Z,26.81
2023-08-11T11:30:00.255Z,26.81
2023-08-11T11:35:00.137Z,26.88
2023-08-11T11:40:00.185Z,26.81
2023-08-11T11:45:01.729Z,26.44
2023-08-11T11:50:00.105Z,26.31
2023-08-11T11:55:00.152Z,26.06
2023-08-11T12:00:00.247Z,26.13
2023-08-11T12:05:00.300Z,26.25
2023-08-11T12:10:00.190Z,26
2023-08-11T12:15:00.156Z,25.69
2023-08-11T12:20:00.125Z,25.5
2023-08-11T12:25:00.134Z,25.31
2023-08-11T12:30:00.159Z,25.63
2023-08-11T12:35:00.134Z,25.69
2023-08-11T12:40:00.155Z,25.69
2023-08-11T12:45:00.149Z,25.81
2023-08-11T12:50:00.127Z,25.75
2023-08-11T12:55:00.169Z,26.06
2023-08-11T13:00:00.246Z,26.13
2023-08-11T13:05:00.146Z,26
2023-08-11T13:10:00.152Z,26
2023-08-11T13:15:00.246Z,25.94
2023-08-11T13:20:00.179Z,25.69
2023-08-11T13:25:00.108Z,25.63
2023-08-11T13:30:00.192Z,25.69
2023-08-11T13:35:00.140Z,25.88
2023-08-11T13:40:00.258Z,26.25
2023-08-11T13:45:00.128Z,26.19
2023-08-11T13:50:00.126Z,26.06
2023-08-11T13:55:00.182Z,26
2023-08-11T14:00:00.344Z,26
2023-08-11T14:05:00.268Z,26.19
2023-08-11T14:10:00.166Z,26.25
2023-08-11T14:15:00.180Z,26.25
2023-08-11T14:20:00.146Z,26.31
2023-08-11T14:25:00.174Z,26.31
2023-08-11T14:30:00.185Z,26.13
2023-08-11T14:35:00.129Z,26.19
2023-08-11T14:40:00.134Z,26.25
2023-08-11T14:45:00.197Z,26.38
2023-08-11T14:50:00.176Z,26.38
2023-08-11T14:55:00.146Z,26.44
2023-08-11T15:00:00.175Z,26.44
2023-08-11T15:05:00.157Z,26.56
2023-08-11T15:10:00.196Z,26.63
2023-08-11T15:15:00.165Z,26.69
2023-08-11T15:20:00.183Z,26.63
2023-08-11T15:25:00.132Z,26.75
2023-08-11T15:30:00.143Z,26.75
2023-08-11T15:35:00.138Z,26.88
2023-08-11T15:40:00.154Z,26.88
2023-08-11T15:45:00.157Z,26.69
2023-08-11T15:50:01.451Z,26.63
2023-08-11T15:55:00.212Z,26.75
2023-08-11T16:00:00.209Z,26.75
2023-08-11T16:05:00.122Z,26.75
2023-08-11T16:10:00.186Z,26.69
2023-08-11T16:15:00.143Z,26.63
2023-08-11T16:20:00.210Z,26.56
2023-08-11T16:25:00.150Z,26.44
2023-08-11T16:30:00.215Z,26.38
2023-08-11T20:35:00.179Z,26.38
2023-08-11T20:40:00.204Z,26.38
2023-08-11T20:45:00.177Z,26.38
2023-08-11T20:50:00.209Z,26.38
2023-08-11T20:55:00.149Z,26.38
2023-08-11T21:00:00.257Z,26.38
2023-08-11T21:05:00.133Z,26.38
2023-08-11T21:10:00.120Z,26.38
2023-08-11T21:15:00.128Z,26.38
2023-08-11T21:20:00.147Z,26.38
2023-08-11T21:25:00.168Z,26.38
2023-08-11T21:30:00.132Z,26.38
2023-08-11T21:35:00.166Z,26.38
2023-08-11T21:40:00.219Z,26.38
2023-08-11T21:45:00.146Z,26.38
2023-08-11T21:50:00.111Z,26.38
2023-08-11T21:55:00.162Z,26.38
2023-08-11T22:00:00.279Z,26.38
2023-08-11T22:05:00.134Z,26.38
2023-08-11T22:10:00.117Z,26.38
2023-08-11T22:15:00.170Z,26.38
2023-08-11T22:20:00.189Z,26.38
2023-08-11T22:25:00.134Z,26.38
2023-08-11T22:30:00.377Z,26.38
2023-08-11T22:35:00.133Z,26.38
2023-08-11T22:40:00.206Z,26.38
2023-08-11T22:45:00.114Z,26.38
2023-08-11T22:50:00.163Z,26.38
2023-08-11T22:55:00.195Z,26.38
2023-08-11T23:00:00.235Z,26.38
2023-08-11T23:05:00.194Z,26.38
2023-08-11T23:10:00.173Z,26.38
2023-08-11T23:15:00.156Z,26.38
2023-08-11T23:20:00.163Z,26.38
2023-08-11T23:25:00.128Z,26.38
2023-08-11T23:30:00.155Z,26.38
2023-08-11T23:35:00.164Z,26.38
2023-08-11T23:40:00.176Z,26.38
2023-08-11T23:45:00.121Z,26.38
2023-08-11T23:50:00.106Z,26.38
2023-08-11T23:55:00.139Z,26.38
